createdAt,value
2022-09-15T00:10:23.943Z,-51
2022-09-15T00:40:29.823Z,-48
2022-09-15T01:10:31.214Z,-48
2022-09-15T01:40:36.908Z,-47
2022-09-15T02:10:37.114Z,-50
2022-09-15T02:40:41.110Z,-49
2022-09-15T03:10:49.875Z,-49
2022-09-15T03:40:50.496Z,-51
2022-09-15T04:10:53.835Z,-53
2022-09-15T04:41:01.524Z,-52
2022-09-15T05:11:06.839Z,-51
2022-09-15T05:41:13.494Z,-52
2022-09-15T06:11:22.911Z,-51
2022-09-15T06:41:25.779Z,-51
2022-09-15T07:11:34.994Z,-50
2022-09-15T07:41:41.518Z,-57
2022-09-15T08:11:48.501Z,-57
2022-09-15T08:41:49.405Z,-56
2022-09-15T09:11:59.550Z,-56
2022-09-15T09:42:01.465Z,-55
2022-09-15T10:12:05.901Z,-56
2022-09-15T10:42:46.722Z,-56
2022-09-15T10:42:57.110Z,-57
2022-09-15T10:43:07.168Z,-56
2022-09-15T11:38:52.649Z,-58
2022-09-15T11:39:02.872Z,-57
2022-09-15T11:39:13.230Z,-57
2022-09-15T12:12:37.072Z,-55
2022-09-15T12:42:45.158Z,-51
2022-09-15T13:12:50.096Z,-55
2022-09-15T13:42:57.075Z,-59
2022-09-15T14:13:03.763Z,-59
2022-09-15T14:43:08.650Z,-57
2022-09-15T15:13:18.110Z,-56
2022-09-15T15:43:28.094Z,-56
2022-09-15T16:13:30.269Z,-55
2022-09-15T16:43:35.211Z,-52
2022-09-15T17:13:47.266Z,-54
2022-09-15T17:43:51.020Z,-54
2022-09-15T18:13:58.782Z,-55
2022-09-15T18:44:07.608Z,-55
2022-09-15T19:14:09.030Z,-55
2022-09-15T19:44:14.521Z,-53
2022-09-15T20:14:14.560Z,-52
2022-09-15T20:44:23.260Z,-53
2022-09-15T21:14:32.851Z,-51
2022-09-15T21:44:37.898Z,-50
2022-09-15T22:14:44.613Z,-48
2022-09-15T22:44:49.083Z,-50
2022-09-15T23:14:54.960Z,-49
2022-09-15T23:45:02.813Z,-49
